sensor_id;sensor_type;location;lat;lon;timestamp;pressure;altitude;pressure_sealevel;temperature;humidity
60725;BME280;59881;36.722;-4.462;2023-01-08T00:01:48;101742.19;;;11.01;75.44
60725;BME280;59881;36.722;-4.462;2023-01-08T00:04:14;101820.63;;;11.48;nan
60725;BME280;59881;36.722;-4.462;2023-01-08T00:06:42;101814.50;;;11.47;75.88
60725;BME280;59881;36.722;-4.462;2023-01-08T00:09:09;101912.44;;;11.41;75.42
60725;BME280;59881;36.722;-4.462;2023-01-08T00:11:34;101428.50;;;8.96;75.18
60725;BME280;59881;36.722;-4.462;2023-01-08T00:14:00;101825.84;;;11.32;75.73
60725;BME280;59881;36.722;-4.462;2023-01-08T00:16:26;101828.72;;;11.27;75.47
60725;BME280;59881;36.722;-4.462;2023-01-08T00:18:52;101821.72;;;11.26;75.54
60725;BME280;59881;36.722;-4.462;2023-01-08T00:21:18;101808.63;;;11.25;75.92
60725;BME280;59881;36.722;-4.462;2023-01-08T00:23:43;101775.88;;;10.42;76.06
60725;BME280;59881;36.722;-4.462;2023-01-08T00:26:09;101799.72;;;11.27;76.35
60725;BME280;59881;36.722;-4.462;2023-01-08T00:28:36;101797.13;;;11.26;76.42
60725;BME280;59881;36.722;-4.462;2023-01-08T00:31:03;101598.78;;;10.00;76.23
60725;BME280;59881;36.722;-4.462;2023-01-08T00:33:28;101715.66;;;10.69;76.08
60725;BME280;59881;36.722;-4.462;2023-01-08T00:35:54;101786.28;;;11.14;76.52
60725;BME280;59881;36.722;-4.462;2023-01-08T00:38:24;101729.91;;;10.82;76.97
60725;BME280;59881;36.722;-4.462;2023-01-08T00:40:50;101770.72;;;11.10;76.91
60725;BME280;59881;36.722;-4.462;2023-01-08T00:43:15;101429.38;;;8.97;76.42
60725;BME280;59881;36.722;-4.462;2023-01-08T00:45:41;101704.03;;;10.55;76.80
60725;BME280;59881;36.722;-4.462;2023-01-08T00:48:07;101771.72;;;10.90;77.10
60725;BME280;59881;36.722;-4.462;2023-01-08T00:50:32;101873.91;;;10.85;77.37
60725;BME280;59881;36.722;-4.462;2023-01-08T00:52:57;101762.34;;;10.84;77.65
60725;BME280;59881;36.722;-4.462;2023-01-08T00:55:23;101305.53;;;8.11;77.33
60725;BME280;59881;36.722;-4.462;2023-01-08T00:57:48;101765.81;;;10.85;77.95
60725;BME280;59881;36.722;-4.462;2023-01-08T01:00:17;101334.81;;;8.41;78.28
60725;BME280;59881;36.722;-4.462;2023-01-08T01:02:42;101725.66;;;10.80;78.54
60725;BME280;59881;36.722;-4.462;2023-01-08T01:05:09;101922.91;;;10.89;79.21
60725;BME280;59881;36.722;-4.462;2023-01-08T01:07:35;101734.72;;;10.91;78.84
60725;BME280;59881;36.722;-4.462;2023-01-08T01:10:01;101557.28;;;9.70;79.27
60725;BME280;59881;36.722;-4.462;2023-01-08T01:12:26;101738.84;;;10.97;79.58
60725;BME280;59881;36.722;-4.462;2023-01-08T01:14:52;101654.16;;;10.52;79.53
60725;BME280;59881;36.722;-4.462;2023-01-08T01:17:18;101751.72;;;11.03;79.56
60725;BME280;59881;36.722;-4.462;2023-01-08T01:19:43;101746.44;;;11.03;79.32
60725;BME280;59881;36.722;-4.462;2023-01-08T01:22:09;101334.25;;;8.33;79.12
60725;BME280;59881;36.722;-4.462;2023-01-08T01:24:35;101765.81;;;11.02;79.62
60725;BME280;59881;36.722;-4.462;2023-01-08T01:27:00;101389.06;;;8.60;78.98
60725;BME280;59881;36.722;-4.462;2023-01-08T01:29:26;101793.97;;;11.02;79.17
60725;BME280;59881;36.722;-4.462;2023-01-08T01:31:51;101753.56;;;11.01;78.99
60725;BME280;59881;36.722;-4.462;2023-01-08T01:34:17;101752.63;;;11.02;79.11
60725;BME280;59881;36.722;-4.462;2023-01-08T01:36:43;101604.06;;;10.18;78.60
60725;BME280;59881;36.722;-4.462;2023-01-08T01:39:08;101748.22;;;11.03;78.77
60725;BME280;59881;36.722;-4.462;2023-01-08T01:41:40;101748.06;;;11.06;78.75
60725;BME280;59881;36.722;-4.462;2023-01-08T01:47:08;101605.78;;;10.19;77.63
60725;BME280;59881;36.722;-4.462;2023-01-08T01:49:35;101721.41;;;10.77;78.57
60725;BME280;59881;36.722;-4.462;2023-01-08T01:52:04;101717.69;;;10.81;78.58
60725;BME280;59881;36.722;-4.462;2023-01-08T01:54:34;101622.78;;;10.11;78.20
60725;BME280;59881;36.722;-4.462;2023-01-08T01:57:00;101649.88;;;10.32;78.09
60725;BME280;59881;36.722;-4.462;2023-01-08T01:59:26;101720.81;;;10.72;78.28
60725;BME280;59881;36.722;-4.462;2023-01-08T02:01:51;101427.72;;;8.94;78.46
60725;BME280;59881;36.722;-4.462;2023-01-08T02:04:18;101818.53;;;10.85;78.26
60725;BME280;59881;36.722;-4.462;2023-01-08T02:09:59;101296.03;;;7.90;78.48
60725;BME280;59881;36.722;-4.462;2023-01-08T02:12:35;101758.91;;;10.65;78.80
60725;BME280;59881;36.722;-4.462;2023-01-08T02:28:15;101725.19;;;10.37;79.58
60725;BME280;59881;36.722;-4.462;2023-01-08T02:30:43;101758.22;;;10.61;80.01
60725;BME280;59881;36.722;-4.462;2023-01-08T02:33:10;101852.94;;;10.64;79.99
60725;BME280;59881;36.722;-4.462;2023-01-08T02:35:38;101854.31;;;10.54;79.97
60725;BME280;59881;36.722;-4.462;2023-01-08T02:38:05;101702.72;;;10.47;79.92
60725;BME280;59881;36.722;-4.462;2023-01-08T02:40:40;101677.00;;;10.34;80.22
60725;BME280;59881;36.722;-4.462;2023-01-08T02:43:11;101739.69;;;10.80;79.85
60725;BME280;59881;36.722;-4.462;2023-01-08T02:50:48;101744.03;;;10.98;79.40
60725;BME280;59881;36.722;-4.462;2023-01-08T02:53:22;101748.22;;;11.03;79.62
60725;BME280;59881;36.722;-4.462;2023-01-08T02:55:53;101364.25;;;8.27;79.00
60725;BME280;59881;36.722;-4.462;2023-01-08T02:58:20;101743.16;;;11.15;79.30
60725;BME280;59881;36.722;-4.462;2023-01-08T03:00:48;101678.81;;;10.85;78.85
60725;BME280;59881;36.722;-4.462;2023-01-08T03:03:26;101732.81;;;11.28;79.03
60725;BME280;59881;36.722;-4.462;2023-01-08T03:05:56;100990.72;;;6.64;78.20
60725;BME280;59881;36.722;-4.462;2023-01-08T03:08:24;101207.75;;;8.25;78.13
60725;BME280;59881;36.722;-4.462;2023-01-08T03:11:03;101345.84;;;8.84;78.00
60725;BME280;59881;36.722;-4.462;2023-01-08T03:13:56;101735.34;;;11.63;78.04
60725;BME280;59881;36.722;-4.462;2023-01-08T03:16:34;101738.44;;;11.71;77.79
60725;BME280;59881;36.722;-4.462;2023-01-08T03:19:14;101748.56;;;11.79;77.28
60725;BME280;59881;36.722;-4.462;2023-01-08T03:21:42;101699.31;;;11.62;76.89
60725;BME280;59881;36.722;-4.462;2023-01-08T03:24:12;101738.38;;;11.89;76.41
60725;BME280;59881;36.722;-4.462;2023-01-08T03:26:40;101254.91;;;8.99;76.15
60725;BME280;59881;36.722;-4.462;2023-01-08T03:29:11;101733.72;;;11.94;76.16
60725;BME280;59881;36.722;-4.462;2023-01-08T03:31:39;101873.41;;;11.98;75.80
60725;BME280;59881;36.722;-4.462;2023-01-08T03:34:05;101675.09;;;11.71;75.71
60725;BME280;59881;36.722;-4.462;2023-01-08T03:36:33;101727.72;;;12.06;75.53
60725;BME280;59881;36.722;-4.462;2023-01-08T03:39:25;101060.09;;;8.04;74.93
60725;BME280;59881;36.722;-4.462;2023-01-08T03:41:49;101725.50;;;12.14;74.85
60725;BME280;59881;36.722;-4.462;2023-01-08T03:44:17;101716.63;;;12.15;74.71
60725;BME280;59881;36.722;-4.462;2023-01-08T03:46:50;101714.75;;;12.17;74.83
60725;BME280;59881;36.722;-4.462;2023-01-08T03:49:18;101627.66;;;11.70;74.56
60725;BME280;59881;36.722;-4.462;2023-01-08T03:51:46;101659.00;;;11.92;74.51
60725;BME280;59881;36.722;-4.462;2023-01-08T03:54:14;101500.44;;;11.01;74.29
60725;BME280;59881;36.722;-4.462;2023-01-08T03:56:40;101658.81;;;11.95;74.28
60725;BME280;59881;36.722;-4.462;2023-01-08T03:59:06;101577.44;;;11.39;74.11
60725;BME280;59881;36.722;-4.462;2023-01-08T04:01:32;101133.91;;;8.67;74.01
60725;BME280;59881;36.722;-4.462;2023-01-08T04:03:57;101638.84;;;11.10;74.52
60725;BME280;59881;36.722;-4.462;2023-01-08T04:06:23;101641.97;;;11.50;74.51
60725;BME280;59881;36.722;-4.462;2023-01-08T04:08:48;101529.94;;;10.25;74.79
60725;BME280;59881;36.722;-4.462;2023-01-08T04:11:15;101683.00;;;11.87;75.30
60725;BME280;59881;36.722;-4.462;2023-01-08T04:13:41;101680.50;;;11.84;75.31
60725;BME280;59881;36.722;-4.462;2023-01-08T04:16:06;101594.53;;;11.32;75.27
60725;BME280;59881;36.722;-4.462;2023-01-08T04:18:32;101624.59;;;11.46;75.18
60725;BME280;59881;36.722;-4.462;2023-01-08T04:20:58;101615.97;;;11.42;75.71
60725;BME280;59881;36.722;-4.462;2023-01-08T04:23:24;101646.53;;;11.62;75.93
60725;BME280;59881;36.722;-4.462;2023-01-08T04:25:50;101584.16;;;11.29;75.99
60725;BME280;59881;36.722;-4.462;2023-01-08T04:28:16;101622.78;;;11.62;76.16
60725;BME280;59881;36.722;-4.462;2023-01-08T04:30:41;101454.81;;;10.51;75.77
60725;BME280;59881;36.722;-4.462;2023-01-08T04:33:07;101647.13;;;11.99;75.90
60725;BME280;59881;36.722;-4.462;2023-01-08T04:35:33;101856.78;;;11.96;75.48
60725;BME280;59881;36.722;-4.462;2023-01-08T04:37:58;101650.91;;;11.95;75.29
60725;BME280;59881;36.722;-4.462;2023-01-08T04:40:24;101189.25;;;9.15;75.53
60725;BME280;59881;36.722;-4.462;2023-01-08T04:42:49;101427.06;;;10.62;75.52
60725;BME280;59881;36.722;-4.462;2023-01-08T04:45:15;101640.75;;;11.87;76.02
60725;BME280;59881;36.722;-4.462;2023-01-08T04:47:41;101341.56;;;10.02;75.77
60725;BME280;59881;36.722;-4.462;2023-01-08T04:50:07;101573.69;;;11.44;75.84
60725;BME280;59881;36.722;-4.462;2023-01-08T04:52:32;101628.06;;;11.78;75.93
60725;BME280;59881;36.722;-4.462;2023-01-08T04:54:58;101557.53;;;11.34;76.21
60725;BME280;59881;36.722;-4.462;2023-01-08T04:57:23;101181.47;;;8.96;76.16
60725;BME280;59881;36.722;-4.462;2023-01-08T04:59:49;101626.56;;;11.58;76.62
60725;BME280;59881;36.722;-4.462;2023-01-08T05:02:14;101590.88;;;11.35;77.04
60725;BME280;59881;36.722;-4.462;2023-01-08T05:04:40;101600.25;;;11.41;77.75
60725;BME280;59881;36.722;-4.462;2023-01-08T05:07:05;101593.19;;;11.41;77.71
60725;BME280;59881;36.722;-4.462;2023-01-08T05:09:32;101590.97;;;11.49;77.45
60725;BME280;59881;36.722;-4.462;2023-01-08T05:11:58;101628.41;;;11.88;77.21
60725;BME280;59881;36.722;-4.462;2023-01-08T05:14:23;101643.38;;;12.03;76.75
60725;BME280;59881;36.722;-4.462;2023-01-08T05:16:49;101547.38;;;11.42;76.17
60725;BME280;59881;36.722;-4.462;2023-01-08T05:19:14;101642.81;;;11.98;75.90
60725;BME280;59881;36.722;-4.462;2023-01-08T05:21:40;101649.34;;;11.91;75.74
60725;BME280;59881;36.722;-4.462;2023-01-08T05:24:06;101602.63;;;11.61;76.01
60725;BME280;59881;36.722;-4.462;2023-01-08T05:26:32;101643.47;;;11.86;76.07
60725;BME280;59881;36.722;-4.462;2023-01-08T05:28:57;101256.28;;;9.57;76.14
60725;BME280;59881;36.722;-4.462;2023-01-08T05:31:23;101580.41;;;11.49;76.09
60725;BME280;59881;36.722;-4.462;2023-01-08T05:33:48;101578.53;;;11.67;75.64
60725;BME280;59881;36.722;-4.462;2023-01-08T05:36:16;101616.56;;;11.95;75.74
60725;BME280;59881;36.722;-4.462;2023-01-08T05:38:41;101562.00;;;11.64;75.36
60725;BME280;59881;36.722;-4.462;2023-01-08T05:41:07;101356.31;;;10.38;75.20
60725;BME280;59881;36.722;-4.462;2023-01-08T05:43:32;101644.78;;;12.25;75.43
60725;BME280;59881;36.722;-4.462;2023-01-08T05:45:59;101177.53;;;8.87;75.20
60725;BME280;59881;36.722;-4.462;2023-01-08T05:48:26;101633.75;;;12.32;75.41
60725;BME280;59881;36.722;-4.462;2023-01-08T05:50:51;101625.56;;;12.37;75.42
60725;BME280;59881;36.722;-4.462;2023-01-08T05:53:17;101615.00;;;12.37;75.05
60725;BME280;59881;36.722;-4.462;2023-01-08T05:55:43;101605.53;;;12.33;74.80
60725;BME280;59881;36.722;-4.462;2023-01-08T05:58:08;101168.19;;;9.64;74.40
60725;BME280;59881;36.722;-4.462;2023-01-08T06:00:35;101563.59;;;11.98;74.29
60725;BME280;59881;36.722;-4.462;2023-01-08T06:03:01;101555.56;;;11.84;74.67
60725;BME280;59881;36.722;-4.462;2023-01-08T06:05:27;101440.22;;;11.09;74.73
60725;BME280;59881;36.722;-4.462;2023-01-08T06:07:52;101648.59;;;12.35;75.15
60725;BME280;59881;36.722;-4.462;2023-01-08T06:10:18;101640.88;;;12.46;75.34
60725;BME280;59881;36.722;-4.462;2023-01-08T06:12:43;101526.28;;;11.88;75.16
60725;BME280;59881;36.722;-4.462;2023-01-08T06:15:09;101219.69;;;10.16;74.91
60725;BME280;59881;36.722;-4.462;2023-01-08T06:17:36;101606.72;;;12.57;74.75
60725;BME280;59881;36.722;-4.462;2023-01-08T06:20:01;101596.53;;;12.66;74.56
60725;BME280;59881;36.722;-4.462;2023-01-08T06:22:27;101636.88;;;12.98;74.31
60725;BME280;59881;36.722;-4.462;2023-01-08T06:24:52;101615.25;;;12.91;74.19
60725;BME280;59881;36.722;-4.462;2023-01-08T06:27:18;101183.44;;;10.37;74.15
60725;BME280;59881;36.722;-4.462;2023-01-08T06:29:43;101637.91;;;13.10;74.14
60725;BME280;59881;36.722;-4.462;2023-01-08T06:32:09;101662.41;;;13.13;74.22
60725;BME280;59881;36.722;-4.462;2023-01-08T06:34:35;101496.16;;;12.07;74.55
60725;BME280;59881;36.722;-4.462;2023-01-08T06:37:00;101730.63;;;13.22;74.81
60725;BME280;59881;36.722;-4.462;2023-01-08T06:39:26;101607.41;;;13.04;74.79
60725;BME280;59881;36.722;-4.462;2023-01-08T06:41:51;101327.16;;;11.33;75.00
60725;BME280;59881;36.722;-4.462;2023-01-08T06:44:17;101831.50;;;13.32;75.39
60725;BME280;59881;36.722;-4.462;2023-01-08T06:46:42;100794.66;;;8.27;75.03
60725;BME280;59881;36.722;-4.462;2023-01-08T06:49:09;101612.59;;;13.20;75.53
60725;BME280;59881;36.722;-4.462;2023-01-08T06:51:35;101639.91;;;13.35;75.72
60725;BME280;59881;36.722;-4.462;2023-01-08T06:54:01;101688.00;;;12.98;75.77
60725;BME280;59881;36.722;-4.462;2023-01-08T06:56:26;101647.84;;;13.35;76.41
60725;BME280;59881;36.722;-4.462;2023-01-08T06:58:52;101650.31;;;13.38;76.92
60725;BME280;59881;36.722;-4.462;2023-01-08T07:01:18;101658.88;;;13.41;77.43
60725;BME280;59881;36.722;-4.462;2023-01-08T07:03:44;101640.56;;;13.24;77.40
60725;BME280;59881;36.722;-4.462;2023-01-08T07:06:17;101152.69;;;10.38;77.17
60725;BME280;59881;36.722;-4.462;2023-01-08T07:08:44;101656.69;;;13.48;77.67
60725;BME280;59881;36.722;-4.462;2023-01-08T07:11:09;101452.88;;;12.38;77.67
60725;BME280;59881;36.722;-4.462;2023-01-08T07:13:35;101600.41;;;13.32;77.84
60725;BME280;59881;36.722;-4.462;2023-01-08T07:16:08;101596.44;;;13.24;77.85
60725;BME280;59881;36.722;-4.462;2023-01-08T07:18:35;101255.09;;;10.74;78.18
60725;BME280;59881;36.722;-4.462;2023-01-08T07:21:02;101646.41;;;13.58;78.28
60725;BME280;59881;36.722;-4.462;2023-01-08T07:23:27;101632.19;;;13.59;78.40
60725;BME280;59881;36.722;-4.462;2023-01-08T07:25:53;101550.91;;;13.05;78.02
60725;BME280;59881;36.722;-4.462;2023-01-08T07:28:19;101209.94;;;10.94;77.76
60725;BME280;59881;36.722;-4.462;2023-01-08T07:30:44;101263.78;;;10.60;77.38
60725;BME280;59881;36.722;-4.462;2023-01-08T07:33:10;101655.41;;;13.27;77.77
60725;BME280;59881;36.722;-4.462;2023-01-08T07:35:35;101639.06;;;13.20;78.23
60725;BME280;59881;36.722;-4.462;2023-01-08T07:38:03;101644.22;;;13.21;78.35
60725;BME280;59881;36.722;-4.462;2023-01-08T07:40:29;101234.56;;;10.79;78.13
60725;BME280;59881;36.722;-4.462;2023-01-08T07:42:57;101652.56;;;13.30;78.11
60725;BME280;59881;36.722;-4.462;2023-01-08T07:45:23;101500.31;;;12.39;77.67
60725;BME280;59881;36.722;-4.462;2023-01-08T07:47:48;101691.78;;;13.23;77.47
60725;BME280;59881;36.722;-4.462;2023-01-08T07:50:14;101681.09;;;13.53;76.88
60725;BME280;59881;36.722;-4.462;2023-01-08T07:52:39;101645.38;;;13.46;76.49
60725;BME280;59881;36.722;-4.462;2023-01-08T07:55:05;101682.66;;;13.70;76.23
60725;BME280;59881;36.722;-4.462;2023-01-08T07:57:31;101642.91;;;13.57;75.92
60725;BME280;59881;36.722;-4.462;2023-01-08T07:59:56;101667.69;;;13.83;76.01
60725;BME280;59881;36.722;-4.462;2023-01-08T08:02:22;101657.97;;;13.84;76.07
60725;BME280;59881;36.722;-4.462;2023-01-08T08:04:47;101350.34;;;12.01;75.89
60725;BME280;59881;36.722;-4.462;2023-01-08T08:07:13;101550.03;;;13.19;76.08
60725;BME280;59881;36.722;-4.462;2023-01-08T08:09:38;101660.75;;;13.95;76.26
60725;BME280;59881;36.722;-4.462;2023-01-08T08:12:04;101645.88;;;13.80;76.09
60725;BME280;59881;36.722;-4.462;2023-01-08T08:14:30;101436.44;;;12.33;75.99
60725;BME280;59881;36.722;-4.462;2023-01-08T08:16:55;101676.34;;;14.00;75.73
60725;BME280;59881;36.722;-4.462;2023-01-08T08:19:21;101676.13;;;14.03;76.41
60725;BME280;59881;36.722;-4.462;2023-01-08T08:21:46;101646.19;;;13.88;76.66
60725;BME280;59881;36.722;-4.462;2023-01-08T08:24:12;101625.72;;;13.77;76.68
60725;BME280;59881;36.722;-4.462;2023-01-08T08:26:37;101679.22;;;14.10;76.80
60725;BME280;59881;36.722;-4.462;2023-01-08T08:29:02;101535.88;;;13.20;76.88
60725;BME280;59881;36.722;-4.462;2023-01-08T08:31:28;101261.63;;;11.56;76.64
60725;BME280;59881;36.722;-4.462;2023-01-08T08:33:54;101695.94;;;14.24;77.03
60725;BME280;59881;36.722;-4.462;2023-01-08T08:36:19;101657.09;;;14.11;77.31
60725;BME280;59881;36.722;-4.462;2023-01-08T08:38:44;101691.59;;;14.36;77.60
60725;BME280;59881;36.722;-4.462;2023-01-08T08:41:10;101674.63;;;14.26;77.60
60725;BME280;59881;36.722;-4.462;2023-01-08T08:43:35;101725.38;;;14.47;77.26
60725;BME280;59881;36.722;-4.462;2023-01-08T08:46:01;101660.09;;;14.32;77.46
60725;BME280;59881;36.722;-4.462;2023-01-08T08:48:26;101692.94;;;14.56;77.56
60725;BME280;59881;36.722;-4.462;2023-01-08T08:50:52;101691.63;;;14.63;77.47
60725;BME280;59881;36.722;-4.462;2023-01-08T08:53:18;101389.09;;;12.98;77.05
60725;BME280;59881;36.722;-4.462;2023-01-08T08:55:43;101693.63;;;15.11;76.66
60725;BME280;59881;36.722;-4.462;2023-01-08T08:58:11;101688.69;;;15.93;75.34
60725;BME280;59881;36.722;-4.462;2023-01-08T09:00:38;101677.88;;;16.31;73.06
60725;BME280;59881;36.722;-4.462;2023-01-08T09:03:04;101690.22;;;16.79;71.51
60725;BME280;59881;36.722;-4.462;2023-01-08T09:05:29;101644.50;;;19.73;65.35
60725;BME280;59881;36.722;-4.462;2023-01-08T09:07:55;101677.38;;;22.55;52.62
60725;BME280;59881;36.722;-4.462;2023-01-08T09:10:22;101288.16;;;21.86;47.92
60725;BME280;59881;36.722;-4.462;2023-01-08T09:12:47;101635.31;;;24.32;46.21
60725;BME280;59881;36.722;-4.462;2023-01-08T09:15:13;101634.19;;;25.46;43.14
60725;BME280;59881;36.722;-4.462;2023-01-08T09:17:39;101428.50;;;27.85;36.87
60725;BME280;59881;36.722;-4.462;2023-01-08T09:20:05;101639.41;;;30.69;32.50
60725;BME280;59881;36.722;-4.462;2023-01-08T09:22:31;101670.50;;;31.07;31.48
60725;BME280;59881;36.722;-4.462;2023-01-08T09:24:56;101401.72;;;26.98;33.87
60725;BME280;59881;36.722;-4.462;2023-01-08T09:27:22;101708.78;;;25.62;38.19
60725;BME280;59881;36.722;-4.462;2023-01-08T09:29:48;101712.38;;;23.58;42.47
60725;BME280;59881;36.722;-4.462;2023-01-08T09:32:13;101773.38;;;22.35;45.21
60725;BME280;59881;36.722;-4.462;2023-01-08T09:34:39;101721.97;;;21.28;47.82
60725;BME280;59881;36.722;-4.462;2023-01-08T09:37:05;101718.91;;;20.57;49.99
60725;BME280;59881;36.722;-4.462;2023-01-08T09:39:31;101764.19;;;20.10;51.85
60725;BME280;59881;36.722;-4.462;2023-01-08T09:41:59;101363.34;;;17.70;53.27
60725;BME280;59881;36.722;-4.462;2023-01-08T09:44:28;101741.69;;;20.22;53.42
60725;BME280;59881;36.722;-4.462;2023-01-08T09:46:55;101388.34;;;17.99;52.92
60725;BME280;59881;36.722;-4.462;2023-01-08T09:49:24;101706.28;;;20.86;52.80
60725;BME280;59881;36.722;-4.462;2023-01-08T09:51:52;101245.78;;;19.20;50.10
60725;BME280;59881;36.722;-4.462;2023-01-08T09:54:20;101711.25;;;21.84;49.44
60725;BME280;59881;36.722;-4.462;2023-01-08T09:56:49;101160.00;;;17.69;51.29
60725;BME280;59881;36.722;-4.462;2023-01-08T09:59:18;101738.72;;;20.54;52.73
60725;BME280;59881;36.722;-4.462;2023-01-08T10:01:44;101746.41;;;19.79;54.08
60725;BME280;59881;36.722;-4.462;2023-01-08T10:04:22;101751.53;;;19.10;56.03
60725;BME280;59881;36.722;-4.462;2023-01-08T10:07:27;101740.47;;;18.72;57.87
60725;BME280;59881;36.722;-4.462;2023-01-08T10:09:49;101441.56;;;15.93;59.15
60725;BME280;59881;36.722;-4.462;2023-01-08T10:12:20;101712.84;;;18.09;60.35
60725;BME280;59881;36.722;-4.462;2023-01-08T10:14:48;101734.53;;;18.04;61.47
60725;BME280;59881;36.722;-4.462;2023-01-08T10:17:29;101725.25;;;17.87;62.26
60725;BME280;59881;36.722;-4.462;2023-01-08T10:19:55;101433.47;;;15.95;63.23
60725;BME280;59881;36.722;-4.462;2023-01-08T10:22:23;101585.13;;;16.85;63.95
60725;BME280;59881;36.722;-4.462;2023-01-08T10:24:50;101746.59;;;17.76;64.49
60725;BME280;59881;36.722;-4.462;2023-01-08T10:27:21;101687.13;;;17.42;64.63
60725;BME280;59881;36.722;-4.462;2023-01-08T10:29:51;101741.84;;;17.79;65.40
60725;BME280;59881;36.722;-4.462;2023-01-08T10:32:27;101755.91;;;17.82;65.61
60725;BME280;59881;36.722;-4.462;2023-01-08T10:34:57;101715.47;;;17.65;65.79
60725;BME280;59881;36.722;-4.462;2023-01-08T10:37:28;101765.69;;;18.04;65.79
60725;BME280;59881;36.722;-4.462;2023-01-08T10:40:22;101755.34;;;18.22;65.40
60725;BME280;59881;36.722;-4.462;2023-01-08T10:42:51;101753.97;;;18.38;64.55
60725;BME280;59881;36.722;-4.462;2023-01-08T10:45:27;101754.19;;;18.47;64.45
60725;BME280;59881;36.722;-4.462;2023-01-08T10:47:58;101752.91;;;18.51;63.76
60725;BME280;59881;36.722;-4.462;2023-01-08T10:50:28;101717.09;;;18.65;63.93
60725;BME280;59881;36.722;-4.462;2023-01-08T10:53:05;101724.41;;;21.49;58.92
60725;BME280;59881;36.722;-4.462;2023-01-08T10:55:41;101704.72;;;22.32;52.48
60725;BME280;59881;36.722;-4.462;2023-01-08T11:00:36;101628.56;;;20.49;55.00
60725;BME280;59881;36.722;-4.462;2023-01-08T11:03:07;101233.91;;;17.15;57.25
60725;BME280;59881;36.722;-4.462;2023-01-08T11:05:39;101705.53;;;19.27;59.53
60725;BME280;59881;36.722;-4.462;2023-01-08T11:08:15;101716.94;;;18.77;61.01
60725;BME280;59881;36.722;-4.462;2023-01-08T11:10:42;101687.59;;;18.45;62.04
60725;BME280;59881;36.722;-4.462;2023-01-08T11:13:16;101751.69;;;18.34;62.45
60725;BME280;59881;36.722;-4.462;2023-01-08T11:15:43;101706.91;;;18.37;63.03
60725;BME280;59881;36.722;-4.462;2023-01-08T11:18:17;101751.84;;;18.74;63.26
60725;BME280;59881;36.722;-4.462;2023-01-08T11:20:44;101750.00;;;18.86;63.62
60725;BME280;59881;36.722;-4.462;2023-01-08T11:25:55;101750.91;;;18.75;63.71
60725;BME280;59881;36.722;-4.462;2023-01-08T11:31:35;101717.78;;;18.46;64.49
60725;BME280;59881;36.722;-4.462;2023-01-08T11:34:19;101737.47;;;18.66;65.01
60725;BME280;59881;36.722;-4.462;2023-01-08T11:36:50;101809.28;;;18.69;65.32
60725;BME280;59881;36.722;-4.462;2023-01-08T11:39:18;101731.88;;;18.69;65.62
60725;BME280;59881;36.722;-4.462;2023-01-08T11:42:14;101736.88;;;18.62;65.93
60725;BME280;59881;36.722;-4.462;2023-01-08T11:44:54;101680.28;;;18.26;66.55
60725;BME280;59881;36.722;-4.462;2023-01-08T11:48:00;101724.59;;;18.71;66.83
60725;BME280;59881;36.722;-4.462;2023-01-08T11:50:38;101664.28;;;18.68;67.21
60725;BME280;59881;36.722;-4.462;2023-01-08T11:55:45;101836.28;;;18.87;66.84
60725;BME280;59881;36.722;-4.462;2023-01-08T12:04:18;101657.81;;;18.08;68.97
60725;BME280;59881;36.722;-4.462;2023-01-08T12:09:37;101665.28;;;19.19;68.08
60725;BME280;59881;36.722;-4.462;2023-01-08T12:17:57;101644.50;;;20.31;63.42
60725;BME280;59881;36.722;-4.462;2023-01-08T12:20:39;101641.00;;;20.31;63.27
60725;BME280;59881;36.722;-4.462;2023-01-08T12:23:24;101632.41;;;20.27;63.39
60725;BME280;59881;36.722;-4.462;2023-01-08T12:26:08;101634.50;;;20.33;63.87
60725;BME280;59881;36.722;-4.462;2023-01-08T12:39:50;101236.56;;;18.76;60.52
60725;BME280;59881;36.722;-4.462;2023-01-08T12:42:20;101690.19;;;21.43;60.55
60725;BME280;59881;36.722;-4.462;2023-01-08T12:44:51;101348.28;;;19.86;59.09
60725;BME280;59881;36.722;-4.462;2023-01-08T12:47:22;101540.06;;;20.70;58.69
60725;BME280;59881;36.722;-4.462;2023-01-08T12:55:35;101511.94;;;20.84;59.48
60725;BME280;59881;36.722;-4.462;2023-01-08T12:58:23;101611.38;;;21.54;59.25
60725;BME280;59881;36.722;-4.462;2023-01-08T13:01:28;101606.00;;;21.54;57.45
60725;BME280;59881;36.722;-4.462;2023-01-08T13:03:57;101664.97;;;21.26;57.90
60725;BME280;59881;36.722;-4.462;2023-01-08T13:06:23;101208.50;;;18.81;59.07
60725;BME280;59881;36.722;-4.462;2023-01-08T13:08:51;101733.59;;;21.47;59.55
60725;BME280;59881;36.722;-4.462;2023-01-08T13:11:28;101250.47;;;18.99;59.05
60725;BME280;59881;36.722;-4.462;2023-01-08T13:14:21;101579.97;;;21.46;59.12
60725;BME280;59881;36.722;-4.462;2023-01-08T13:17:01;101568.00;;;21.41;58.82
60725;BME280;59881;36.722;-4.462;2023-01-08T13:19:40;101592.16;;;21.31;58.63
60725;BME280;59881;36.722;-4.462;2023-01-08T13:22:26;101584.03;;;21.23;58.97
60725;BME280;59881;36.722;-4.462;2023-01-08T13:27:32;101233.22;;;19.40;58.80
60725;BME280;59881;36.722;-4.462;2023-01-08T13:29:58;101579.31;;;21.35;58.91
60725;BME280;59881;36.722;-4.462;2023-01-08T13:32:44;101584.03;;;21.23;58.90
60725;BME280;59881;36.722;-4.462;2023-01-08T13:37:41;101438.53;;;20.49;59.69
60725;BME280;59881;36.722;-4.462;2023-01-08T13:43:19;101553.72;;;21.68;58.86
60725;BME280;59881;36.722;-4.462;2023-01-08T13:46:02;101476.25;;;21.29;58.25
60725;BME280;59881;36.722;-4.462;2023-01-08T13:48:47;101111.63;;;18.99;58.36
60725;BME280;59881;36.722;-4.462;2023-01-08T13:51:29;101542.75;;;21.43;58.33
60725;BME280;59881;36.722;-4.462;2023-01-08T13:54:39;101537.34;;;21.25;58.77
60725;BME280;59881;36.722;-4.462;2023-01-08T13:56:50;101541.00;;;21.06;58.97
60725;BME280;59881;36.722;-4.462;2023-01-08T13:59:24;101549.72;;;21.08;59.19
60725;BME280;59881;36.722;-4.462;2023-01-08T14:01:56;101535.69;;;20.69;59.88
60725;BME280;59881;36.722;-4.462;2023-01-08T14:04:24;101450.44;;;19.90;60.60